createdAt,value
2022-10-23T00:02:29.580Z,14.30
2022-10-23T00:05:20.345Z,13.67
2022-10-23T00:08:09.225Z,12.83
2022-10-23T00:10:57.833Z,10.23
2022-10-23T00:13:47.647Z,9.30
2022-10-23T00:16:38.419Z,10.03
2022-10-23T00:19:27.374Z,10.13
2022-10-23T00:22:15.647Z,14.07
2022-10-23T00:25:07.331Z,11.40
2022-10-23T00:27:55.109Z,12.50
2022-10-23T00:30:45.301Z,10.10
2022-10-23T00:33:35.280Z,9.57
2022-10-23T00:36:23.632Z,9.10
2022-10-23T00:39:14.216Z,11.67
2022-10-23T00:42:02.327Z,11.57
2022-10-23T00:44:50.002Z,11.67
2022-10-23T00:47:39.451Z,12.57
2022-10-23T00:50:28.963Z,13.63
2022-10-23T00:53:19.410Z,11.67
2022-10-23T00:56:08.415Z,15.23
2022-10-23T00:58:58.453Z,14.27
2022-10-23T01:01:48.772Z,14.13
2022-10-23T01:04:39.644Z,9.20
2022-10-23T01:07:36.628Z,11.10
2022-10-23T01:10:40.397Z,12.37
2022-10-23T01:13:47.933Z,11.23
2022-10-23T01:16:48.857Z,9.27
2022-10-23T01:44:05.630Z,11.13
2022-10-23T01:58:39.907Z,14.60
2022-10-23T02:10:50.138Z,13.63
2022-10-23T02:21:18.911Z,13.90
2022-10-23T02:44:28.313Z,10.87
2022-10-23T03:23:01.940Z,11.33
2022-10-23T03:26:52.300Z,10.97
2022-10-23T03:33:50.821Z,18.37
2022-10-23T03:37:16.399Z,10.60
2022-10-23T03:47:02.531Z,9.43
2022-10-23T03:53:16.651Z,12.50
2022-10-23T04:06:59.801Z,12.53
2022-10-23T04:09:59.131Z,7.90
2022-10-23T04:13:01.751Z,12.70
2022-10-23T04:20:00.553Z,13.50
2022-10-23T04:27:06.171Z,12.00
2022-10-23T04:30:16.566Z,13.63
2022-10-23T04:33:04.159Z,10.37
2022-10-23T05:12:55.488Z,9.40
2022-10-23T05:15:46.497Z,12.80
2022-10-23T05:26:19.564Z,11.90
2022-10-23T05:29:20.856Z,14.20
2022-10-23T05:36:11.079Z,15.93
2022-10-23T05:39:10.511Z,12.60
2022-10-23T05:49:29.408Z,14.30
2022-10-23T05:52:22.076Z,10.50
2022-10-23T05:55:09.502Z,13.20
2022-10-23T05:57:56.611Z,12.50
2022-10-23T06:00:43.604Z,10.73
2022-10-23T06:03:30.589Z,10.53
2022-10-23T06:06:17.521Z,13.03
2022-10-23T06:09:05.110Z,13.90
2022-10-23T06:11:52.087Z,18.57
2022-10-23T06:14:39.053Z,13.60
2022-10-23T06:17:27.202Z,13.10
2022-10-23T06:20:14.221Z,11.60
2022-10-23T06:23:01.219Z,9.13
2022-10-23T06:25:53.626Z,11.37
2022-10-23T06:28:41.543Z,11.40
2022-10-23T06:31:28.693Z,12.90
2022-10-23T06:34:16.081Z,13.73
2022-10-23T06:37:03.054Z,13.60
2022-10-23T06:39:50.098Z,12.07
2022-10-23T06:42:37.021Z,11.93
2022-10-23T06:45:23.960Z,11.63
2022-10-23T06:48:11.053Z,11.90
2022-10-23T06:50:58.819Z,14.03
2022-10-23T06:53:46.158Z,12.43
2022-10-23T06:56:33.101Z,11.10
2022-10-23T06:59:20.154Z,11.53
2022-10-23T07:02:07.134Z,10.93
2022-10-23T07:04:54.091Z,11.67
2022-10-23T07:07:41.194Z,10.97
2022-10-23T07:10:28.236Z,12.87
2022-10-23T07:13:15.237Z,11.07
2022-10-23T07:16:17.962Z,9.50
2022-10-23T07:19:06.921Z,15.57
2022-10-23T07:21:53.876Z,9.87
2022-10-23T07:24:40.958Z,11.70
2022-10-23T07:27:27.882Z,10.63
2022-10-23T07:30:15.105Z,7.73
2022-10-23T07:33:02.097Z,8.43
2022-10-23T07:35:50.074Z,11.43
2022-10-23T07:38:37.053Z,10.67
2022-10-23T07:41:24.075Z,8.80
2022-10-23T07:44:11.050Z,7.50
2022-10-23T07:46:58.001Z,10.37
2022-10-23T07:49:44.909Z,10.13
2022-10-23T07:52:35.026Z,9.83
2022-10-23T07:55:22.997Z,10.07
2022-10-23T07:58:10.022Z,10.57
2022-10-23T08:01:01.722Z,8.40
2022-10-23T08:03:48.749Z,9.30
2022-10-23T08:06:36.255Z,11.17
2022-10-23T08:09:23.145Z,10.83
2022-10-23T08:12:10.471Z,8.87
2022-10-23T08:14:57.385Z,7.20
2022-10-23T08:17:44.507Z,8.60
2022-10-23T08:20:31.807Z,8.73
2022-10-23T08:23:19.806Z,9.37
2022-10-23T08:26:07.073Z,7.33
2022-10-23T08:28:54.042Z,5.87
2022-10-23T08:31:41.015Z,8.30
2022-10-23T08:34:28.532Z,9.07
2022-10-23T08:37:15.497Z,4.93
2022-10-23T08:40:02.506Z,9.13
2022-10-23T08:43:06.537Z,8.60
2022-10-23T08:46:05.151Z,9.40
2022-10-23T08:49:18.032Z,8.97
2022-10-23T08:52:41.881Z,9.60
2022-10-23T08:55:57.106Z,9.37
2022-10-23T09:01:47.545Z,10.13
2022-10-23T09:04:35.145Z,10.10
2022-10-23T09:07:45.498Z,6.53
2022-10-23T09:10:58.835Z,8.53
2022-10-23T09:14:18.195Z,10.37
2022-10-23T09:20:12.517Z,9.37
2022-10-23T09:23:04.581Z,6.23
2022-10-23T09:25:55.602Z,7.93
2022-10-23T09:29:07.698Z,6.83
2022-10-23T09:31:57.105Z,8.37
2022-10-23T09:34:53.498Z,7.43
2022-10-23T09:37:47.826Z,8.40
2022-10-23T09:40:42.835Z,6.43
2022-10-23T09:43:30.321Z,6.27
2022-10-23T09:46:17.307Z,9.67
2022-10-23T09:49:05.802Z,12.53
2022-10-23T09:52:10.043Z,6.37
2022-10-23T09:55:00.319Z,7.23
2022-10-23T09:57:47.856Z,6.97
2022-10-23T10:00:35.044Z,8.17
2022-10-23T10:03:23.520Z,8.40
2022-10-23T10:06:27.775Z,7.57
2022-10-23T10:09:16.952Z,6.47
2022-10-23T10:12:30.748Z,6.70
2022-10-23T10:15:42.725Z,6.07
2022-10-23T10:19:01.909Z,6.70
2022-10-23T10:22:11.889Z,6.27
2022-10-23T10:25:23.611Z,4.57
2022-10-23T10:28:28.678Z,4.43
2022-10-23T10:31:50.757Z,3.57
2022-10-23T10:35:01.625Z,4.10
2022-10-23T10:38:00.811Z,3.33
2022-10-23T10:41:26.206Z,3.43
2022-10-23T10:44:20.529Z,5.77
2022-10-23T10:47:27.432Z,4.87
2022-10-23T10:50:40.018Z,5.80
2022-10-23T10:53:45.158Z,4.73
2022-10-23T10:56:35.515Z,3.23
2022-10-23T10:59:32.097Z,6.03
2022-10-23T11:03:08.442Z,6.57
2022-10-23T11:08:57.355Z,6.37
2022-10-23T11:11:44.949Z,2.90
2022-10-23T11:14:34.571Z,2.83
2022-10-23T11:17:33.010Z,4.50
2022-10-23T11:20:25.979Z,6.03
2022-10-23T11:23:34.373Z,3.93
2022-10-23T11:27:02.181Z,3.20
2022-10-23T11:30:17.124Z,4.97
2022-10-23T11:33:06.914Z,3.43
2022-10-23T11:36:05.182Z,3.43
2022-10-23T11:38:54.032Z,4.00
2022-10-23T11:41:49.085Z,3.37
2022-10-23T11:44:47.885Z,4.43
2022-10-23T11:47:40.595Z,7.00
2022-10-23T11:50:31.625Z,4.17
2022-10-23T11:53:26.267Z,4.73
2022-10-23T11:56:13.283Z,5.87
2022-10-23T12:03:41.552Z,4.47
2022-10-23T12:11:00.698Z,2.87
2022-10-23T12:18:57.924Z,5.13
2022-10-23T12:22:14.547Z,4.60
2022-10-23T12:25:13.499Z,4.60
2022-10-23T12:28:21.372Z,5.30
2022-10-23T12:55:15.214Z,7.23
2022-10-23T13:05:15.435Z,4.43
2022-10-23T13:08:26.363Z,5.20
2022-10-23T13:18:19.345Z,4.63
2022-10-23T13:21:17.266Z,4.90
2022-10-23T13:24:04.723Z,7.13
2022-10-23T13:26:52.060Z,3.93
2022-10-23T13:29:42.516Z,6.90
2022-10-23T13:32:30.626Z,4.30
2022-10-23T13:35:23.403Z,8.47
2022-10-23T13:38:14.377Z,3.70
2022-10-23T13:41:14.086Z,4.23
2022-10-23T13:44:01.249Z,3.70
2022-10-23T13:46:49.923Z,6.00
2022-10-23T13:52:58.227Z,3.97
2022-10-23T13:55:51.549Z,3.63
2022-10-23T14:16:32.034Z,3.87
2022-10-23T14:19:22.264Z,2.40
2022-10-23T14:25:11.967Z,2.40
2022-10-23T14:27:59.219Z,3.00
2022-10-23T14:31:06.116Z,5.67
2022-10-23T14:40:04.723Z,3.83
2022-10-23T14:42:58.634Z,2.43
2022-10-23T14:51:57.256Z,4.93
2022-10-23T14:54:45.465Z,4.73
2022-10-23T15:01:23.786Z,5.50
2022-10-23T15:04:45.300Z,4.87
2022-10-23T15:39:38.221Z,2.10
2022-10-23T15:42:25.321Z,3.37
2022-10-23T15:45:23.901Z,3.27
2022-10-23T15:51:53.533Z,5.03
2022-10-23T15:55:29.243Z,4.67
2022-10-23T15:58:23.070Z,5.80
2022-10-23T16:01:13.834Z,4.77
2022-10-23T16:04:01.399Z,4.67
2022-10-23T16:06:49.954Z,3.70
2022-10-23T16:09:38.913Z,3.00
2022-10-23T16:12:27.460Z,3.60
2022-10-23T16:15:15.210Z,5.27
2022-10-23T16:18:03.706Z,4.33
2022-10-23T16:20:57.474Z,4.07
2022-10-23T16:23:45.102Z,4.53
2022-10-23T16:26:34.471Z,4.23
2022-10-23T16:29:27.600Z,6.93
2022-10-23T16:32:25.506Z,4.63
2022-10-23T16:38:13.729Z,3.77
2022-10-23T16:41:03.630Z,4.50
2022-10-23T16:43:54.007Z,2.63
2022-10-23T16:46:40.986Z,2.73
2022-10-23T16:49:29.868Z,4.20
2022-10-23T16:52:16.852Z,4.73
2022-10-23T16:55:04.099Z,4.37
2022-10-23T16:57:51.634Z,3.43
2022-10-23T17:00:39.168Z,4.73
2022-10-23T17:03:30.981Z,2.87
2022-10-23T17:06:26.140Z,3.03
2022-10-23T17:09:13.742Z,4.20
2022-10-23T17:15:04.338Z,4.50
2022-10-23T17:17:57.686Z,2.83
2022-10-23T17:20:44.922Z,3.80
2022-10-23T17:23:47.984Z,5.97
2022-10-23T17:26:41.038Z,5.93
2022-10-23T17:29:32.464Z,4.10
2022-10-23T17:38:48.931Z,5.73
2022-10-23T17:42:26.466Z,3.87
2022-10-23T17:45:17.274Z,9.67
2022-10-23T17:48:04.441Z,7.00
2022-10-23T17:51:04.793Z,6.30
2022-10-23T17:53:54.258Z,3.57
2022-10-23T17:56:41.506Z,5.23
2022-10-23T17:59:28.494Z,6.57
2022-10-23T18:02:15.665Z,5.20
2022-10-23T18:05:03.300Z,5.10
2022-10-23T18:07:53.282Z,6.03
2022-10-23T18:10:40.746Z,4.97
2022-10-23T18:13:28.528Z,6.23
2022-10-23T18:16:15.674Z,5.70
2022-10-23T18:19:03.344Z,7.20
2022-10-23T18:21:50.288Z,7.90
2022-10-23T18:24:38.289Z,3.83
2022-10-23T18:27:25.321Z,4.80
2022-10-23T18:30:12.745Z,5.60
2022-10-23T18:32:59.718Z,5.03
2022-10-23T18:35:47.657Z,4.90
2022-10-23T18:38:35.814Z,6.27
2022-10-23T18:41:23.790Z,5.80
2022-10-23T18:44:15.760Z,5.10
2022-10-23T18:47:06.148Z,5.43
2022-10-23T18:49:53.141Z,4.23
2022-10-23T18:52:40.285Z,7.47
2022-10-23T18:55:27.260Z,6.50
2022-10-23T18:58:14.222Z,5.20
2022-10-23T19:01:01.290Z,6.83
2022-10-23T19:03:49.006Z,4.77
2022-10-23T19:06:37.920Z,7.10
2022-10-23T19:09:26.202Z,5.90
2022-10-23T19:12:15.724Z,4.57
2022-10-23T19:15:07.448Z,4.67
2022-10-23T19:17:55.715Z,8.67
2022-10-23T19:20:43.451Z,5.90
2022-10-23T19:23:30.623Z,6.70
2022-10-23T19:26:18.076Z,5.53
2022-10-23T19:29:08.836Z,7.00
2022-10-23T19:31:57.316Z,8.57
2022-10-23T19:34:45.887Z,8.30
2022-10-23T19:37:33.099Z,8.37
2022-10-23T19:40:20.761Z,8.40
2022-10-23T19:43:09.642Z,6.07
2022-10-23T19:46:00.055Z,8.60
2022-10-23T19:48:47.885Z,8.90
2022-10-23T19:51:37.965Z,8.57
2022-10-23T19:54:25.125Z,5.70
2022-10-23T19:57:12.255Z,5.37
2022-10-23T20:00:00.294Z,6.37
2022-10-23T20:02:49.100Z,6.60
2022-10-23T20:05:43.490Z,5.03
2022-10-23T20:08:34.245Z,7.23
2022-10-23T20:11:26.030Z,6.57
2022-10-23T20:14:13.482Z,9.07
2022-10-23T20:17:01.646Z,7.57
2022-10-23T20:19:49.369Z,7.70
2022-10-23T20:22:40.538Z,7.60
2022-10-23T20:25:29.990Z,6.83
2022-10-23T20:28:16.986Z,8.00
2022-10-23T20:31:09.268Z,8.47
2022-10-23T20:33:56.621Z,7.63
2022-10-23T20:36:47.018Z,7.67
2022-10-23T20:39:36.737Z,5.20
2022-10-23T20:42:23.808Z,7.67
2022-10-23T20:45:11.118Z,5.17
2022-10-23T20:47:59.013Z,6.80
2022-10-23T20:50:46.390Z,6.97
2022-10-23T20:53:35.647Z,8.90
2022-10-23T20:56:31.364Z,11.83
2022-10-23T20:59:21.583Z,8.10
2022-10-23T21:02:10.340Z,8.60
2022-10-23T21:04:59.206Z,13.30
2022-10-23T21:07:46.635Z,8.93
2022-10-23T21:10:34.767Z,10.87
2022-10-23T21:13:22.837Z,6.93
2022-10-23T21:16:20.887Z,7.33
2022-10-23T21:19:16.938Z,7.50
2022-10-23T21:22:05.472Z,6.80
2022-10-23T21:24:54.124Z,8.40
2022-10-23T21:27:42.041Z,5.63
2022-10-23T21:30:30.639Z,6.33
2022-10-23T21:33:18.987Z,7.20
2022-10-23T21:36:15.891Z,5.80
2022-10-23T21:39:03.884Z,6.60
2022-10-23T21:41:51.112Z,6.40
2022-10-23T21:44:38.212Z,7.13
2022-10-23T21:47:25.651Z,7.63
2022-10-23T21:50:12.822Z,7.33
2022-10-23T21:52:59.977Z,7.93
2022-10-23T21:55:47.145Z,6.00
2022-10-23T21:58:34.429Z,8.60
2022-10-23T22:01:23.549Z,6.73
2022-10-23T22:04:11.882Z,6.37
2022-10-23T22:06:59.504Z,9.30
2022-10-23T22:09:46.677Z,5.53
2022-10-23T22:12:33.815Z,6.50
2022-10-23T22:15:21.014Z,7.60
2022-10-23T22:18:08.134Z,4.83
2022-10-23T22:21:11.802Z,7.47
2022-10-23T22:24:01.098Z,4.83
2022-10-23T22:26:51.840Z,4.40
2022-10-23T22:29:39.081Z,6.53
2022-10-23T22:32:26.295Z,6.10
2022-10-23T22:35:13.470Z,3.90
2022-10-23T22:38:00.656Z,5.33
2022-10-23T22:43:35.372Z,7.80
2022-10-23T22:46:22.922Z,3.93
2022-10-23T22:49:10.752Z,5.50
2022-10-23T22:51:57.983Z,3.73
2022-10-23T22:54:45.123Z,3.37
2022-10-23T22:57:32.229Z,4.93
2022-10-23T23:00:19.536Z,3.27
2022-10-23T23:03:07.739Z,3.37
2022-10-23T23:05:55.019Z,5.53
2022-10-23T23:08:42.973Z,3.40
2022-10-23T23:11:40.818Z,3.97
2022-10-23T23:14:38.917Z,5.33
2022-10-23T23:17:26.155Z,4.60
2022-10-23T23:20:13.779Z,5.27
2022-10-23T23:23:00.976Z,4.90
2022-10-23T23:25:50.154Z,5.03
2022-10-23T23:28:37.906Z,4.97
2022-10-23T23:31:26.639Z,3.23
2022-10-23T23:34:13.828Z,3.67
2022-10-23T23:37:01.007Z,6.37
2022-10-23T23:39:48.276Z,6.47
2022-10-23T23:42:35.462Z,3.53
2022-10-23T23:45:22.807Z,6.97
2022-10-23T23:48:10.074Z,5.07
2022-10-23T23:50:57.284Z,6.90
2022-10-23T23:53:44.546Z,7.57
2022-10-23T23:56:32.152Z,4.77
2022-10-23T23:59:19.341Z,5.27
